createdAt,value
2023-04-17T00:02:25.673Z,7.45
2023-04-17T00:04:54.288Z,7.41
2023-04-17T00:07:22.674Z,7.44
2023-04-17T00:09:50.641Z,7.54
2023-04-17T00:12:18.394Z,7.37
2023-04-17T00:14:47.457Z,7.34
2023-04-17T00:17:15.368Z,7.34
2023-04-17T00:19:43.081Z,7.35
2023-04-17T00:22:10.792Z,7.48
2023-04-17T00:24:38.495Z,7.82
2023-04-17T00:27:06.241Z,7.68
2023-04-17T00:29:42.512Z,7.57
2023-04-17T00:32:11.634Z,7.57
2023-04-17T00:34:40.504Z,7.75
2023-04-17T00:37:08.249Z,7.85
2023-04-17T00:39:36.020Z,7.53
2023-04-17T00:42:03.780Z,7.54
2023-04-17T00:44:31.513Z,7.50
2023-04-17T00:46:59.268Z,7.35
2023-04-17T00:49:28.397Z,7.60
2023-04-17T00:51:56.153Z,7.45
2023-04-17T00:54:23.970Z,7.91
2023-04-17T00:56:51.934Z,7.70
2023-04-17T00:59:19.677Z,7.65
2023-04-17T01:01:47.627Z,7.55
2023-04-17T01:04:15.587Z,7.90
2023-04-17T01:06:44.789Z,7.57
2023-04-17T01:09:13.083Z,7.51
2023-04-17T01:11:40.983Z,7.57
2023-04-17T01:14:08.860Z,7.61
2023-04-17T01:16:40.279Z,7.77
2023-04-17T01:19:08.360Z,7.51
2023-04-17T01:21:36.144Z,7.58
2023-04-17T01:24:06.266Z,7.66
2023-04-17T01:26:34.874Z,7.52
2023-04-17T01:29:02.666Z,7.41
2023-04-17T01:31:32.058Z,7.45
2023-04-17T01:34:00.628Z,7.36
2023-04-17T01:36:28.788Z,7.23
2023-04-17T01:38:56.539Z,7.32
2023-04-17T01:41:26.043Z,7.36
2023-04-17T01:43:53.922Z,7.29
2023-04-17T01:46:21.682Z,7.31
2023-04-17T01:48:50.064Z,7.25
2023-04-17T01:51:17.807Z,7.16
2023-04-17T01:53:45.547Z,7.14
2023-04-17T01:56:13.890Z,7.20
2023-04-17T01:58:43.055Z,7.21
2023-04-17T02:01:10.836Z,7.28
2023-04-17T02:03:38.744Z,7.29
2023-04-17T02:06:07.308Z,7.09
2023-04-17T02:08:35.669Z,7.14
2023-04-17T02:11:04.557Z,7.03
2023-04-17T02:13:32.278Z,7.05
2023-04-17T02:16:01.345Z,7.08
2023-04-17T02:18:30.157Z,7.20
2023-04-17T02:20:57.951Z,7.13
2023-04-17T02:23:25.773Z,7.28
2023-04-17T02:25:53.571Z,7.30
2023-04-17T02:28:21.265Z,7.35
2023-04-17T02:30:49.013Z,7.44
2023-04-17T02:37:25.002Z,7.23
2023-04-17T02:39:55.007Z,7.06
2023-04-17T02:42:22.789Z,7.35
2023-04-17T02:44:50.529Z,7.37
2023-04-17T02:47:18.611Z,7.13
2023-04-17T02:49:46.902Z,7.14
2023-04-17T02:52:14.742Z,7.22
2023-04-17T02:54:43.899Z,7.43
2023-04-17T02:57:12.179Z,7.07
2023-04-17T02:59:39.910Z,7.43
2023-04-17T03:02:08.286Z,7.32
2023-04-17T03:04:38.754Z,7.43
2023-04-17T03:07:06.759Z,7.39
2023-04-17T03:09:35.049Z,7.36
2023-04-17T03:12:06.824Z,7.39
2023-04-17T03:14:34.584Z,7.20
2023-04-17T03:17:02.354Z,7.27
2023-04-17T03:19:30.476Z,7.07
2023-04-17T03:21:58.288Z,7.44
2023-04-17T03:24:26.002Z,7.24
2023-04-17T03:26:54.183Z,7.27
2023-04-17T03:29:24.225Z,7.29
2023-04-17T03:31:52.068Z,6.99
2023-04-17T03:34:20.444Z,7.04
2023-04-17T03:36:49.531Z,7.19
2023-04-17T03:39:17.398Z,7.40
2023-04-17T03:41:45.258Z,7.00
2023-04-17T03:44:13.274Z,7.23
2023-04-17T03:46:42.318Z,7.64
2023-04-17T03:49:10.323Z,7.26
2023-04-17T03:51:39.533Z,7.16
2023-04-17T03:54:13.258Z,6.87
2023-04-17T03:56:43.479Z,7.02
2023-04-17T03:59:12.386Z,7.07
2023-04-17T04:01:46.890Z,6.96
2023-04-17T04:04:19.357Z,6.75
2023-04-17T04:06:49.475Z,7.09
2023-04-17T04:09:20.548Z,7.37
2023-04-17T04:11:48.447Z,7.30
2023-04-17T04:14:16.974Z,7.22
2023-04-17T04:16:49.185Z,7.48
2023-04-17T04:19:17.166Z,7.62
2023-04-17T04:21:45.417Z,7.36
2023-04-17T04:24:15.226Z,7.47
2023-04-17T04:26:44.061Z,7.56
2023-04-17T04:29:13.863Z,7.60
2023-04-17T04:31:55.584Z,7.30
2023-04-17T04:34:29.575Z,7.01
2023-04-17T04:36:57.701Z,7.19
2023-04-17T04:39:43.051Z,7.43
2023-04-17T04:42:28.366Z,7.27
2023-04-17T04:45:13.155Z,7.60
2023-04-17T04:47:43.427Z,7.93
2023-04-17T04:50:11.766Z,7.65
2023-04-17T04:52:39.518Z,7.79
2023-04-17T04:55:15.791Z,8.09
2023-04-17T04:57:49.393Z,7.20
2023-04-17T05:00:18.174Z,7.18
2023-04-17T05:02:49.422Z,7.07
2023-04-17T05:05:20.362Z,7.36
2023-04-17T05:07:48.061Z,6.92
2023-04-17T05:10:16.384Z,7.06
2023-04-17T05:12:50.206Z,6.91
2023-04-17T05:15:18.078Z,7.04
2023-04-17T05:17:46.661Z,7.43
2023-04-17T05:20:16.717Z,7.12
2023-04-17T05:22:50.629Z,6.99
2023-04-17T05:25:19.813Z,6.82
2023-04-17T05:27:47.945Z,6.84
2023-04-17T05:30:18.435Z,6.80
2023-04-17T05:32:51.948Z,7.07
2023-04-17T05:35:47.306Z,6.98
2023-04-17T05:38:17.179Z,7.02
2023-04-17T05:40:44.934Z,6.94
2023-04-17T05:43:12.929Z,7.35
2023-04-17T05:45:42.411Z,7.19
2023-04-17T05:48:10.786Z,6.94
2023-04-17T05:50:38.575Z,7.20
2023-04-17T05:53:08.555Z,7.33
2023-04-17T05:55:42.467Z,7.37
2023-04-17T06:00:43.936Z,6.86
2023-04-17T06:03:18.021Z,6.89
2023-04-17T06:05:48.315Z,6.78
2023-04-17T06:08:18.588Z,6.87
2023-04-17T06:10:46.648Z,6.95
2023-04-17T06:13:14.407Z,7.01
2023-04-17T06:15:46.726Z,6.89
2023-04-17T06:18:16.212Z,6.77
2023-04-17T06:20:44.004Z,6.81
2023-04-17T06:23:11.771Z,6.81
2023-04-17T06:25:40.831Z,6.83
2023-04-17T06:28:08.531Z,6.76
2023-04-17T06:30:36.456Z,6.95
2023-04-17T06:33:05.041Z,6.96
2023-04-17T06:35:34.100Z,7.06
2023-04-17T06:38:12.544Z,7.03
2023-04-17T06:40:41.645Z,6.86
2023-04-17T06:43:09.835Z,7.04
2023-04-17T06:45:42.332Z,6.89
2023-04-17T06:48:10.096Z,6.99
2023-04-17T06:50:43.299Z,6.91
2023-04-17T06:53:11.005Z,6.84
2023-04-17T06:55:38.794Z,7.19
2023-04-17T06:58:08.503Z,6.94
2023-04-17T07:00:36.201Z,7.16
2023-04-17T07:03:04.069Z,7.00
2023-04-17T07:05:31.810Z,6.86
2023-04-17T07:07:59.529Z,7.03
2023-04-17T07:10:27.234Z,7.08
2023-04-17T07:12:55.216Z,7.08
2023-04-17T07:15:24.430Z,7.01
2023-04-17T07:17:52.241Z,7.31
2023-04-17T07:20:20.022Z,7.25
2023-04-17T07:22:47.759Z,7.61
2023-04-17T07:25:15.502Z,7.12
2023-04-17T07:27:43.665Z,7.32
2023-04-17T07:30:11.762Z,7.29
2023-04-17T07:32:40.871Z,7.37
2023-04-17T07:35:09.331Z,7.20
2023-04-17T07:37:37.567Z,7.16
2023-04-17T07:40:10.322Z,7.28
2023-04-17T07:42:38.078Z,7.17
2023-04-17T07:45:06.697Z,7.41
2023-04-17T07:47:34.559Z,7.15
2023-04-17T07:50:03.640Z,6.98
2023-04-17T07:52:31.821Z,7.03
2023-04-17T07:54:59.514Z,7.09
2023-04-17T07:57:27.379Z,7.18
2023-04-17T07:59:55.046Z,7.59
2023-04-17T08:02:23.056Z,7.22
2023-04-17T08:04:52.297Z,7.19
2023-04-17T08:07:21.527Z,7.22
2023-04-17T08:09:51.071Z,7.33
2023-04-17T08:12:18.851Z,7.13
2023-04-17T08:14:46.577Z,7.30
2023-04-17T08:17:15.142Z,7.04
2023-04-17T08:19:42.830Z,7.37
2023-04-17T08:22:10.587Z,7.23
2023-04-17T08:24:39.633Z,7.07
2023-04-17T08:27:07.935Z,7.07
2023-04-17T08:29:35.724Z,7.12
2023-04-17T08:32:14.035Z,6.96
2023-04-17T08:34:43.253Z,6.96
2023-04-17T08:37:10.961Z,7.12
2023-04-17T08:39:40.074Z,7.04
2023-04-17T08:42:10.029Z,7.08
2023-04-17T08:44:39.779Z,7.11
2023-04-17T08:47:09.166Z,7.02
2023-04-17T08:49:36.918Z,6.88
2023-04-17T08:52:05.108Z,6.91
2023-04-17T08:54:35.138Z,7.00
2023-04-17T08:57:04.946Z,7.02
2023-04-17T08:59:33.157Z,7.14
2023-04-17T09:02:02.283Z,7.20
2023-04-17T09:04:38.220Z,7.11
2023-04-17T09:07:06.653Z,7.24
2023-04-17T09:09:47.682Z,7.25
2023-04-17T09:12:16.768Z,7.36
2023-04-17T09:14:44.536Z,7.48
2023-04-17T09:17:12.271Z,7.40
2023-04-17T09:19:40.369Z,7.48
2023-04-17T09:22:21.258Z,7.34
2023-04-17T09:24:50.645Z,7.35
2023-04-17T09:27:23.347Z,7.44
2023-04-17T09:29:58.452Z,7.34
2023-04-17T09:32:26.690Z,7.18
2023-04-17T09:34:54.480Z,7.20
2023-04-17T09:37:22.303Z,7.26
2023-04-17T09:39:57.850Z,7.37
2023-04-17T09:42:27.194Z,7.44
2023-04-17T09:44:55.609Z,7.66
2023-04-17T09:47:23.648Z,7.80
2023-04-17T09:49:52.789Z,7.53
2023-04-17T09:52:24.452Z,7.64
2023-04-17T09:54:53.817Z,7.37
2023-04-17T09:57:21.924Z,7.40
2023-04-17T09:59:51.341Z,7.32
2023-04-17T10:02:21.314Z,7.21
2023-04-17T10:04:52.316Z,7.18
2023-04-17T10:07:20.078Z,7.17
2023-04-17T10:09:47.795Z,7.21
2023-04-17T10:12:16.312Z,7.37
2023-04-17T10:14:46.702Z,7.37
2023-04-17T10:17:24.873Z,7.44
2023-04-17T10:19:52.894Z,7.61
2023-04-17T10:22:30.609Z,7.59
2023-04-17T10:25:23.989Z,7.49
2023-04-17T10:27:53.482Z,7.61
2023-04-17T10:30:22.786Z,7.65
2023-04-17T10:33:27.369Z,7.46
2023-04-17T10:35:55.158Z,7.37
2023-04-17T10:38:33.605Z,7.27
2023-04-17T10:41:05.745Z,7.12
2023-04-17T10:43:33.992Z,7.25
2023-04-17T10:46:08.476Z,7.12
2023-04-17T10:48:39.243Z,7.10
2023-04-17T10:51:41.675Z,7.12
2023-04-17T10:54:13.667Z,6.92
2023-04-17T10:56:42.485Z,6.99
2023-04-17T10:59:11.115Z,7.00
2023-04-17T11:01:40.530Z,7.04
2023-04-17T11:04:12.510Z,7.09
2023-04-17T11:06:40.797Z,7.13
2023-04-17T11:09:09.028Z,7.16
2023-04-17T11:14:12.059Z,7.22
2023-04-17T11:16:41.971Z,7.35
2023-04-17T11:19:13.191Z,7.19
2023-04-17T11:21:41.338Z,7.25
2023-04-17T11:24:09.132Z,7.28
2023-04-17T11:26:43.151Z,7.00
2023-04-17T11:29:15.257Z,6.88
2023-04-17T11:31:43.038Z,6.92
2023-04-17T11:34:15.740Z,7.09
2023-04-17T11:36:49.871Z,7.12
2023-04-17T11:39:18.262Z,7.16
2023-04-17T11:41:46.522Z,7.34
2023-04-17T11:44:14.366Z,7.40
2023-04-17T11:46:42.202Z,7.40
2023-04-17T11:49:10.431Z,7.27
2023-04-17T11:51:39.672Z,7.13
2023-04-17T11:54:07.527Z,6.94
2023-04-17T11:56:35.419Z,6.92
2023-04-17T11:59:05.057Z,7.00
2023-04-17T12:01:32.759Z,6.98
2023-04-17T12:04:00.680Z,6.98
2023-04-17T12:06:36.833Z,6.89
2023-04-17T12:09:09.132Z,6.90
2023-04-17T12:11:37.630Z,6.97
2023-04-17T12:14:12.162Z,7.00
2023-04-17T12:16:40.454Z,7.04
2023-04-17T12:19:09.201Z,7.01
2023-04-17T12:21:39.894Z,7.11
2023-04-17T12:24:12.280Z,7.19
2023-04-17T12:26:46.448Z,7.13
2023-04-17T12:29:14.579Z,7.16
2023-04-17T12:31:42.436Z,7.21
2023-04-17T12:34:10.403Z,7.22
2023-04-17T12:36:38.401Z,7.34
2023-04-17T12:39:10.521Z,7.63
2023-04-17T12:41:38.249Z,7.45
2023-04-17T12:44:06.804Z,7.59
2023-04-17T12:46:36.451Z,7.45
2023-04-17T12:49:07.215Z,7.57
2023-04-17T12:51:40.616Z,7.53
2023-04-17T12:54:09.709Z,7.53
2023-04-17T12:56:37.384Z,7.51
2023-04-17T12:59:07.370Z,7.50
2023-04-17T13:01:35.193Z,7.52
2023-04-17T13:04:03.423Z,7.42
2023-04-17T13:06:32.425Z,7.46
2023-04-17T13:09:00.758Z,7.45
2023-04-17T13:11:31.374Z,7.43
2023-04-17T13:13:59.130Z,7.34
2023-04-17T13:16:30.369Z,7.37
2023-04-17T13:18:58.267Z,7.39
2023-04-17T13:21:26.934Z,7.35
2023-04-17T13:23:57.098Z,7.41
2023-04-17T13:26:24.906Z,7.42
2023-04-17T13:28:55.390Z,7.61
2023-04-17T13:31:24.672Z,7.77
2023-04-17T13:33:52.805Z,7.70
2023-04-17T13:36:20.668Z,7.95
2023-04-17T13:38:48.450Z,7.82
2023-04-17T13:41:16.219Z,7.96
2023-04-17T13:43:44.553Z,8.19
2023-04-17T13:46:16.206Z,7.98
2023-04-17T13:48:44.094Z,7.99
2023-04-17T13:51:11.862Z,8.19
2023-04-17T13:53:39.741Z,8.02
2023-04-17T13:56:07.689Z,8.24
2023-04-17T13:58:41.341Z,7.85
2023-04-17T14:01:12.259Z,7.89
2023-04-17T14:03:43.867Z,7.90
2023-04-17T14:06:13.449Z,7.82
2023-04-17T14:08:44.364Z,7.86
2023-04-17T14:11:12.469Z,8.06
2023-04-17T14:13:40.619Z,7.82
2023-04-17T14:16:08.667Z,7.63
2023-04-17T14:18:36.700Z,7.94
2023-04-17T14:21:05.812Z,7.89
2023-04-17T14:23:33.622Z,7.88
2023-04-17T14:26:02.656Z,7.91
2023-04-17T14:28:30.418Z,7.65
2023-04-17T14:30:58.196Z,7.73
2023-04-17T14:33:29.006Z,7.83
2023-04-17T14:35:59.394Z,7.78
2023-04-17T14:38:28.546Z,7.58
2023-04-17T14:40:56.585Z,7.76
2023-04-17T14:43:24.407Z,7.49
2023-04-17T14:45:52.314Z,7.36
2023-04-17T14:48:20.965Z,7.68
2023-04-17T14:50:48.681Z,7.59
2023-04-17T14:53:16.506Z,7.53
2023-04-17T14:55:45.651Z,7.42
2023-04-17T14:58:13.650Z,7.43
2023-04-17T15:00:44.387Z,7.61
2023-04-17T15:03:15.173Z,7.50
2023-04-17T15:05:46.550Z,7.67
2023-04-17T15:08:19.447Z,7.47
2023-04-17T15:10:51.540Z,7.31
2023-04-17T15:13:19.580Z,7.25
2023-04-17T15:15:47.302Z,7.27
2023-04-17T15:18:15.029Z,7.30
2023-04-17T15:20:42.767Z,7.53
2023-04-17T15:23:10.515Z,7.47
2023-04-17T15:25:38.334Z,7.60
2023-04-17T15:28:07.476Z,7.67
2023-04-17T15:30:35.231Z,7.37
2023-04-17T15:33:03.268Z,7.41
2023-04-17T15:35:31.092Z,7.42
2023-04-17T15:37:58.977Z,7.68
2023-04-17T15:40:26.770Z,7.40
2023-04-17T15:43:00.878Z,7.30
2023-04-17T15:45:30.000Z,7.44
2023-04-17T15:47:58.185Z,7.43
2023-04-17T15:50:26.478Z,7.39
2023-04-17T15:52:54.307Z,7.25
2023-04-17T15:55:22.100Z,7.17
2023-04-17T15:57:49.924Z,7.16
2023-04-17T16:00:18.780Z,7.15
2023-04-17T16:02:48.160Z,7.13
2023-04-17T16:05:16.187Z,7.20
2023-04-17T16:07:44.036Z,7.17
2023-04-17T16:10:14.745Z,7.11
2023-04-17T16:12:43.278Z,7.11
2023-04-17T16:15:12.198Z,7.10
2023-04-17T16:17:40.145Z,7.14
2023-04-17T16:20:10.942Z,7.13
2023-04-17T16:22:39.203Z,7.19
2023-04-17T16:25:07.810Z,7.19
2023-04-17T16:27:36.056Z,7.15
2023-04-17T16:30:05.303Z,7.14
2023-04-17T16:32:33.090Z,7.17
2023-04-17T16:35:00.897Z,7.16
2023-04-17T16:37:30.532Z,7.17
2023-04-17T16:40:09.340Z,7.10
2023-04-17T16:42:37.238Z,7.11
2023-04-17T16:45:06.562Z,7.06
2023-04-17T16:47:34.380Z,7.08
2023-04-17T16:50:02.327Z,7.08
2023-04-17T16:52:35.086Z,7.01
2023-04-17T16:55:08.440Z,7.02
2023-04-17T16:57:38.216Z,7.00
2023-04-17T17:00:17.852Z,6.94
2023-04-17T17:02:47.829Z,6.95
2023-04-17T17:05:18.909Z,6.91
2023-04-17T17:07:50.331Z,6.94
2023-04-17T17:10:18.444Z,6.97
2023-04-17T17:12:46.145Z,6.94
2023-04-17T17:15:14.484Z,6.94
2023-04-17T17:17:43.596Z,6.86
2023-04-17T17:20:12.072Z,6.91
2023-04-17T17:22:39.814Z,6.90
2023-04-17T17:25:10.024Z,6.90
2023-04-17T17:27:37.809Z,6.89
2023-04-17T17:30:06.379Z,6.89
2023-04-17T17:32:36.962Z,6.91
2023-04-17T17:35:05.978Z,6.92
2023-04-17T17:37:33.967Z,6.94
2023-04-17T17:40:03.386Z,6.93
2023-04-17T17:42:32.500Z,6.95
2023-04-17T17:45:00.681Z,6.96
2023-04-17T17:47:28.478Z,6.97
2023-04-17T17:49:58.809Z,7.03
2023-04-17T17:52:26.880Z,6.99
2023-04-17T17:54:56.965Z,7.27
2023-04-17T17:57:27.704Z,6.91
2023-04-17T18:00:02.230Z,6.70
2023-04-17T18:02:33.415Z,6.59
2023-04-17T18:05:06.728Z,6.40
2023-04-17T18:07:34.775Z,6.45
2023-04-17T18:10:02.510Z,6.24
2023-04-17T18:12:30.318Z,6.51
2023-04-17T18:14:58.537Z,6.55
2023-04-17T18:17:30.170Z,6.46
2023-04-17T18:19:58.493Z,6.36
2023-04-17T18:22:26.697Z,6.34
2023-04-17T18:25:00.248Z,6.41
2023-04-17T18:27:29.589Z,6.43
2023-04-17T18:29:57.731Z,6.58
2023-04-17T18:32:25.959Z,6.44
2023-04-17T18:34:55.164Z,6.44
2023-04-17T18:37:23.742Z,6.40
2023-04-17T18:39:56.424Z,6.34
2023-04-17T18:42:24.208Z,6.26
2023-04-17T18:44:52.204Z,6.28
2023-04-17T18:47:20.524Z,6.22
2023-04-17T18:49:48.393Z,6.26
2023-04-17T18:52:17.520Z,6.27
2023-04-17T18:54:46.985Z,6.16
2023-04-17T18:57:14.725Z,6.09
2023-04-17T18:59:43.944Z,6.08
2023-04-17T19:02:11.874Z,6.16
2023-04-17T19:04:40.687Z,6.01
2023-04-17T19:07:14.180Z,5.84
2023-04-17T19:09:45.712Z,5.70
2023-04-17T19:12:13.696Z,5.56
2023-04-17T19:14:44.587Z,5.80
2023-04-17T19:17:12.710Z,5.92
2023-04-17T19:19:43.472Z,5.93
2023-04-17T19:22:16.144Z,5.99
2023-04-17T19:24:51.054Z,5.99
2023-04-17T19:27:26.406Z,6.02
2023-04-17T19:29:57.714Z,6.02
2023-04-17T19:32:25.662Z,6.07
2023-04-17T19:34:53.966Z,6.05
2023-04-17T19:37:23.954Z,6.04
2023-04-17T19:42:29.261Z,6.10
2023-04-17T19:44:57.209Z,6.11
2023-04-17T19:47:28.557Z,6.05
2023-04-17T19:49:56.485Z,6.01
2023-04-17T19:52:24.297Z,6.04
2023-04-17T19:54:56.101Z,6.15
2023-04-17T19:57:23.811Z,6.13
2023-04-17T19:59:51.828Z,6.05
2023-04-17T20:02:21.628Z,6.05
2023-04-17T20:04:52.743Z,6.04
2023-04-17T20:07:26.907Z,6.01
2023-04-17T20:09:56.177Z,6.05
2023-04-17T20:12:23.906Z,6.14
2023-04-17T20:14:52.653Z,6.04
2023-04-17T20:17:20.475Z,6.00
2023-04-17T20:19:48.248Z,6.04
2023-04-17T20:22:16.123Z,5.97
2023-04-17T20:24:44.358Z,5.99
2023-04-17T20:27:15.837Z,5.94
2023-04-17T20:29:43.738Z,6.01
2023-04-17T20:32:11.549Z,6.02
2023-04-17T20:34:39.277Z,6.09
2023-04-17T20:37:07.175Z,6.05
2023-04-17T20:39:37.606Z,6.10
2023-04-17T20:42:05.468Z,6.03
2023-04-17T20:44:37.485Z,6.18
2023-04-17T20:47:05.217Z,6.44
2023-04-17T20:49:35.745Z,6.60
2023-04-17T20:52:03.833Z,6.42
2023-04-17T20:54:31.606Z,6.32
2023-04-17T20:56:59.483Z,6.13
2023-04-17T20:59:27.322Z,6.20
2023-04-17T21:01:58.710Z,6.23
2023-04-17T21:04:26.784Z,6.01
2023-04-17T21:06:55.646Z,5.94
2023-04-17T21:09:24.703Z,5.89
2023-04-17T21:11:52.478Z,5.86
2023-04-17T21:14:20.282Z,5.89
2023-04-17T21:16:48.077Z,5.97
2023-04-17T21:19:17.396Z,5.85
2023-04-17T21:21:45.166Z,5.87
2023-04-17T21:24:13.004Z,5.87
2023-04-17T21:26:40.878Z,5.93
2023-04-17T21:29:08.656Z,5.78
2023-04-17T21:31:36.597Z,5.87
2023-04-17T21:34:04.376Z,5.80
2023-04-17T21:36:33.476Z,5.75
2023-04-17T21:39:01.254Z,5.80
2023-04-17T21:41:31.176Z,5.79
2023-04-17T21:44:00.480Z,5.89
2023-04-17T21:46:31.048Z,5.88
2023-04-17T21:48:58.821Z,5.82
2023-04-17T21:51:27.165Z,5.96
2023-04-17T21:53:56.272Z,5.86
2023-04-17T21:56:26.670Z,5.77
2023-04-17T21:58:54.468Z,5.70
2023-04-17T22:01:22.328Z,5.63
2023-04-17T22:03:50.336Z,5.64
2023-04-17T22:06:18.118Z,5.65
2023-04-17T22:08:46.391Z,5.57
2023-04-17T22:11:33.990Z,5.51
2023-04-17T22:14:05.841Z,5.60
2023-04-17T22:16:39.076Z,5.59
2023-04-17T22:19:11.980Z,5.64
2023-04-17T22:21:39.965Z,5.66
2023-04-17T22:24:09.127Z,5.59
2023-04-17T22:26:38.264Z,5.51
2023-04-17T22:29:06.026Z,5.52
2023-04-17T22:31:34.081Z,5.50
2023-04-17T22:34:01.892Z,5.51
2023-04-17T22:36:29.668Z,5.53
2023-04-17T22:38:57.380Z,5.59
2023-04-17T22:41:25.120Z,5.53
2023-04-17T22:43:54.212Z,5.54
2023-04-17T22:46:21.993Z,5.64
2023-04-17T22:48:49.740Z,5.67
2023-04-17T22:51:17.746Z,5.68
2023-04-17T22:53:46.631Z,5.67
2023-04-17T22:56:14.407Z,5.66
2023-04-17T22:58:42.110Z,5.51
2023-04-17T23:01:11.219Z,5.57
2023-04-17T23:03:38.998Z,5.63
2023-04-17T23:06:07.560Z,5.57
2023-04-17T23:08:35.338Z,5.51
2023-04-17T23:11:03.513Z,5.52
2023-04-17T23:13:31.596Z,5.50
2023-04-17T23:15:59.421Z,5.52
2023-04-17T23:18:28.512Z,5.47
2023-04-17T23:20:56.236Z,5.52
2023-04-17T23:23:23.993Z,5.40
2023-04-17T23:25:52.133Z,5.42
2023-04-17T23:28:19.871Z,5.42
2023-04-17T23:30:47.628Z,5.47
2023-04-17T23:33:15.365Z,5.43
2023-04-17T23:35:44.391Z,5.46
2023-04-17T23:38:12.188Z,5.36
2023-04-17T23:40:39.882Z,5.52
2023-04-17T23:43:07.795Z,5.52
2023-04-17T23:45:35.622Z,5.56
2023-04-17T23:48:03.427Z,5.65
2023-04-17T23:50:31.188Z,5.90
2023-04-17T23:53:00.553Z,5.87
2023-04-17T23:55:28.365Z,5.80
2023-04-17T23:57:56.165Z,5.72
